TNCM

Princess Juliana International Airport

ICAO Code TNCM
IATA Code SXM
Name Princess Juliana International Airport
Location Saint Martin, , SX
Elevation 13 Feet / 4 Meters
Latitude 18.04100037
Longitude -63.10889816
METAR TNCM 211000Z 06009KT 040V120 9999 SCT018 27/23 Q1019 NOSIG
Extra information Display Charts and CFS
Display NOTAMS
Runway Length Width Surface Elevation
09 7708 ft 148 ft ASP 11 ft
10 7152 ft 148 ft ASPH-CONC 12 ft
27 7708 ft 148 ft ASP 11 ft
28 7152 ft 148 ft ASPH-CONC 9 ft